createdAt,value
2019-03-10T00:00:37.987Z,88.78
2019-03-10T00:01:37.853Z,88.97
2019-03-10T00:02:37.726Z,89.54
2019-03-10T00:03:37.588Z,91.34
2019-03-10T00:04:37.464Z,89.44
2019-03-10T00:05:37.325Z,88.68
2019-03-10T00:06:37.210Z,89.82
2019-03-10T00:07:37.059Z,93.13
2019-03-10T00:08:36.929Z,96.07
2019-03-10T00:09:36.802Z,94.56
2019-03-10T00:10:36.663Z,95.03
2019-03-10T00:11:36.530Z,95.21
2019-03-10T00:12:36.397Z,96.35
2019-03-10T00:13:36.265Z,93.61
2019-03-10T00:14:36.800Z,94.84
2019-03-10T00:15:36.003Z,94.65
2019-03-10T00:16:35.873Z,94.27
2019-03-10T00:17:35.735Z,93.32
2019-03-10T00:18:35.612Z,94.27
2019-03-10T00:19:36.787Z,94.74
2019-03-10T00:20:37.058Z,92.94
2019-03-10T00:21:35.206Z,93.42
2019-03-10T00:22:35.078Z,93.51
2019-03-10T00:23:34.941Z,94.27
2019-03-10T00:24:34.809Z,93.80
2019-03-10T00:25:34.681Z,94.84
2019-03-10T00:26:34.546Z,94.93
2019-03-10T00:27:34.413Z,94.27
2019-03-10T00:28:34.283Z,94.37
2019-03-10T00:29:34.152Z,94.74
2019-03-10T00:30:34.018Z,94.65
2019-03-10T00:31:33.886Z,95.78
2019-03-10T00:32:33.924Z,96.45
2019-03-10T00:33:33.620Z,95.40
2019-03-10T00:34:33.491Z,96.26
2019-03-10T00:35:33.358Z,98.91
2019-03-10T00:36:33.226Z,99.66
2019-03-10T00:37:33.090Z,97.49
2019-03-10T00:38:32.958Z,98.15
2019-03-10T00:39:32.826Z,98.25
2019-03-10T00:40:34.562Z,98.06
2019-03-10T00:41:32.567Z,99.10
2019-03-10T00:42:32.431Z,99.99
2019-03-10T00:43:32.809Z,99.99
2019-03-10T00:44:32.176Z,99.99
2019-03-10T00:45:32.038Z,99.99
2019-03-10T00:46:31.906Z,99.99
2019-03-10T00:47:33.559Z,99.99
2019-03-10T00:48:31.641Z,99.99
2019-03-10T00:49:31.510Z,99.99
2019-03-10T00:50:31.406Z,99.99
2019-03-10T00:51:31.246Z,99.99
2019-03-10T00:52:31.118Z,99.99
2019-03-10T00:53:30.983Z,99.99
2019-03-10T00:54:30.852Z,99.99
2019-03-10T00:55:30.718Z,99.99
2019-03-10T00:56:30.586Z,99.99
2019-03-10T00:57:30.456Z,99.99
2019-03-10T00:58:30.331Z,99.99
2019-03-10T00:59:30.195Z,99.99
2019-03-10T01:00:30.057Z,99.99
2019-03-10T01:01:29.927Z,99.99
2019-03-10T01:02:29.794Z,99.99
2019-03-10T01:03:29.664Z,99.99
2019-03-10T01:04:29.531Z,99.99
2019-03-10T01:05:29.405Z,99.99
2019-03-10T01:06:29.269Z,99.99
2019-03-10T01:07:29.142Z,99.99
2019-03-10T01:08:29.003Z,99.99
2019-03-10T01:09:28.871Z,99.99
2019-03-10T01:10:28.738Z,99.99
2019-03-10T01:11:28.604Z,99.99
2019-03-10T01:12:28.829Z,99.99
2019-03-10T01:13:28.343Z,99.99
2019-03-10T01:14:28.213Z,99.99
2019-03-10T01:15:28.087Z,99.99
2019-03-10T01:16:27.950Z,99.99
2019-03-10T01:17:27.814Z,99.99
2019-03-10T01:18:27.686Z,99.99
2019-03-10T01:19:27.547Z,99.99
2019-03-10T01:20:27.418Z,99.99
2019-03-10T01:21:27.282Z,99.99
2019-03-10T01:22:27.151Z,99.99
2019-03-10T01:23:27.020Z,99.99
2019-03-10T01:24:26.887Z,99.99
2019-03-10T01:25:26.755Z,99.99
2019-03-10T01:26:26.622Z,99.99
2019-03-10T01:27:26.490Z,99.99
2019-03-10T01:28:26.374Z,99.99
2019-03-10T01:29:26.225Z,99.99
2019-03-10T01:30:26.095Z,99.99
2019-03-10T01:31:25.960Z,99.99
2019-03-10T01:32:25.827Z,99.99
2019-03-10T01:33:25.697Z,99.99
2019-03-10T01:34:25.561Z,99.99
2019-03-10T01:35:25.430Z,99.99
2019-03-10T01:36:25.296Z,99.99
2019-03-10T01:37:25.167Z,99.99
2019-03-10T01:38:25.041Z,99.99
2019-03-10T01:39:24.903Z,99.99
2019-03-10T01:40:24.772Z,99.99
2019-03-10T01:41:24.845Z,99.99
2019-03-10T01:42:24.505Z,99.99
2019-03-10T01:43:24.368Z,99.99
2019-03-10T01:44:24.242Z,99.99
2019-03-10T01:45:24.105Z,99.99
2019-03-10T01:46:23.975Z,99.99
2019-03-10T01:47:23.840Z,99.99
2019-03-10T01:48:23.708Z,99.99
2019-03-10T01:49:23.575Z,99.99
2019-03-10T01:50:23.442Z,99.99
2019-03-10T01:51:23.314Z,99.99
2019-03-10T01:52:23.178Z,99.99
2019-03-10T01:53:25.833Z,99.99
2019-03-10T01:54:22.987Z,99.99
2019-03-10T01:55:22.782Z,99.99
2019-03-10T01:56:22.702Z,99.99
2019-03-10T01:57:22.517Z,99.99
2019-03-10T01:58:22.385Z,99.99
2019-03-10T01:59:22.255Z,99.99
2019-03-10T02:00:22.121Z,99.99
2019-03-10T02:01:21.986Z,99.99
2019-03-10T02:02:25.726Z,99.99
2019-03-10T02:03:21.720Z,99.99
2019-03-10T02:04:21.594Z,99.99
2019-03-10T02:05:21.455Z,99.99
2019-03-10T02:06:21.324Z,99.99
2019-03-10T02:07:21.195Z,99.99
2019-03-10T02:08:21.056Z,99.99
2019-03-10T02:09:20.990Z,99.99
2019-03-10T02:10:22.576Z,99.99
2019-03-10T02:11:20.659Z,99.99
2019-03-10T02:12:20.529Z,99.99
2019-03-10T02:13:20.394Z,99.99
2019-03-10T02:14:22.077Z,99.99
2019-03-10T02:15:20.132Z,99.99
2019-03-10T02:16:20.002Z,99.99
2019-03-10T02:17:19.868Z,99.99
2019-03-10T02:18:19.735Z,99.99
2019-03-10T02:19:19.607Z,99.99
2019-03-10T02:20:19.470Z,99.99
2019-03-10T02:21:19.334Z,99.99
2019-03-10T02:22:19.205Z,99.99
2019-03-10T02:23:19.087Z,99.99
2019-03-10T02:24:23.767Z,99.99
2019-03-10T02:25:18.805Z,99.99
2019-03-10T02:26:18.678Z,99.99
2019-03-10T02:27:18.543Z,99.99
2019-03-10T02:28:18.409Z,99.99
2019-03-10T02:29:18.277Z,99.99
2019-03-10T02:30:18.151Z,99.99
2019-03-10T02:31:18.021Z,99.99
2019-03-10T02:32:17.880Z,99.99
2019-03-10T02:33:17.753Z,99.99
2019-03-10T02:34:17.617Z,99.99
2019-03-10T02:35:17.483Z,99.99
2019-03-10T02:36:17.351Z,99.99
2019-03-10T02:37:17.219Z,99.99
2019-03-10T02:38:17.087Z,99.99
2019-03-10T02:39:16.956Z,99.99
2019-03-10T02:40:16.823Z,99.99
2019-03-10T02:41:16.690Z,99.99
2019-03-10T02:42:18.084Z,99.99
2019-03-10T02:43:16.423Z,99.99
2019-03-10T02:44:16.291Z,99.99
2019-03-10T02:45:16.166Z,99.99
2019-03-10T02:46:16.044Z,99.99
2019-03-10T02:47:15.894Z,99.99
2019-03-10T02:48:15.767Z,99.99
2019-03-10T02:49:15.660Z,99.99
2019-03-10T02:50:15.498Z,99.99
2019-03-10T02:51:15.379Z,99.99
2019-03-10T02:52:15.232Z,99.99
2019-03-10T02:53:15.102Z,99.99
2019-03-10T02:54:14.969Z,99.99
2019-03-10T02:55:14.835Z,99.99
2019-03-10T02:56:14.752Z,99.99
2019-03-10T02:57:14.577Z,99.99
2019-03-10T02:58:14.438Z,99.99
2019-03-10T02:59:14.305Z,99.99
2019-03-10T03:00:14.175Z,99.99
2019-03-10T03:01:15.586Z,99.99
2019-03-10T03:02:13.921Z,99.99
2019-03-10T03:03:13.782Z,99.99
2019-03-10T03:04:13.647Z,99.99
2019-03-10T03:05:13.514Z,99.99
2019-03-10T03:06:13.386Z,99.99
2019-03-10T03:07:13.249Z,99.99
2019-03-10T03:08:16.513Z,99.99
2019-03-10T03:09:12.991Z,99.99
2019-03-10T03:10:12.877Z,99.99
2019-03-10T03:11:12.721Z,99.99
2019-03-10T03:12:12.589Z,99.99
2019-03-10T03:13:12.456Z,99.99
2019-03-10T03:14:12.326Z,99.99
2019-03-10T03:15:12.196Z,99.99
2019-03-10T03:16:12.078Z,99.99
2019-03-10T03:17:11.932Z,99.99
2019-03-10T03:18:11.801Z,99.99
2019-03-10T03:19:11.667Z,99.99
2019-03-10T03:20:11.560Z,99.99
2019-03-10T03:21:11.418Z,99.99
2019-03-10T03:22:11.273Z,99.99
2019-03-10T03:23:11.174Z,99.99
2019-03-10T03:24:11.012Z,99.99
2019-03-10T03:25:10.873Z,99.99
2019-03-10T03:26:10.744Z,99.99
2019-03-10T03:27:10.610Z,99.99
2019-03-10T03:28:10.480Z,99.99
2019-03-10T03:29:10.347Z,99.99
2019-03-10T03:30:10.226Z,99.99
2019-03-10T03:31:11.596Z,99.99
2019-03-10T03:32:09.960Z,99.99
2019-03-10T03:33:09.819Z,99.99
2019-03-10T03:34:09.688Z,99.99
2019-03-10T03:35:09.559Z,99.99
2019-03-10T03:36:09.425Z,99.99
2019-03-10T03:37:11.086Z,99.99
2019-03-10T03:38:09.164Z,99.99
2019-03-10T03:39:09.029Z,99.99
2019-03-10T03:40:08.897Z,99.99
2019-03-10T03:41:08.771Z,99.99
2019-03-10T03:42:10.587Z,99.99
2019-03-10T03:43:08.505Z,99.99
2019-03-10T03:44:08.371Z,99.99
2019-03-10T03:45:08.238Z,99.99
2019-03-10T03:46:08.110Z,99.99
2019-03-10T03:47:07.975Z,99.99
2019-03-10T03:48:07.847Z,99.99
2019-03-10T03:49:07.715Z,99.99
2019-03-10T03:50:07.580Z,99.99
2019-03-10T03:51:07.486Z,99.99
2019-03-10T03:52:07.321Z,99.99
2019-03-10T03:53:07.186Z,99.99
2019-03-10T03:54:07.066Z,99.99
2019-03-10T03:55:06.929Z,99.99
2019-03-10T03:56:06.798Z,99.99
2019-03-10T03:57:06.660Z,99.99
2019-03-10T03:58:06.536Z,99.99
2019-03-10T03:59:06.407Z,99.99
2019-03-10T04:00:06.270Z,99.99
2019-03-10T04:01:06.137Z,99.99
2019-03-10T04:02:06.011Z,99.99
2019-03-10T04:03:05.881Z,99.99
2019-03-10T04:04:05.745Z,99.99
2019-03-10T04:05:05.611Z,99.99
2019-03-10T04:06:05.484Z,99.99
2019-03-10T04:07:05.345Z,99.99
2019-03-10T04:08:05.221Z,99.99
2019-03-10T04:09:05.086Z,99.99
2019-03-10T04:10:05.080Z,99.99
2019-03-10T04:11:04.822Z,99.99
2019-03-10T04:12:04.686Z,99.99
2019-03-10T04:13:04.558Z,99.99
2019-03-10T04:14:04.428Z,99.99
2019-03-10T04:15:04.293Z,99.99
2019-03-10T04:16:04.173Z,99.99
2019-03-10T04:17:04.030Z,99.99
2019-03-10T04:18:03.900Z,99.99
2019-03-10T04:19:03.765Z,99.99
2019-03-10T04:20:03.634Z,99.99
2019-03-10T04:21:03.504Z,99.99
2019-03-10T04:22:03.412Z,99.99
2019-03-10T04:23:03.240Z,99.99
2019-03-10T04:24:03.110Z,99.99
2019-03-10T04:25:04.594Z,99.99
2019-03-10T04:26:02.846Z,99.99
2019-03-10T04:27:02.727Z,99.99
2019-03-10T04:28:02.585Z,99.99
2019-03-10T04:29:02.452Z,99.99
2019-03-10T04:30:02.322Z,99.99
2019-03-10T04:31:02.186Z,99.99
2019-03-10T04:32:02.064Z,99.99
2019-03-10T04:33:01.923Z,99.99
2019-03-10T04:34:01.837Z,99.99
2019-03-10T04:35:03.596Z,99.99
2019-03-10T04:36:01.525Z,99.99
2019-03-10T04:37:01.402Z,99.99
2019-03-10T04:38:01.266Z,99.99
2019-03-10T04:39:01.135Z,99.99
2019-03-10T04:40:01.005Z,99.99
2019-03-10T04:41:00.869Z,99.99
2019-03-10T04:42:00.739Z,99.99
2019-03-10T04:43:00.607Z,99.99
2019-03-10T04:44:00.478Z,99.99
2019-03-10T04:45:00.356Z,99.99
2019-03-10T04:46:00.213Z,99.99
2019-03-10T04:47:00.083Z,99.99
2019-03-10T04:47:59.949Z,99.99
2019-03-10T04:48:59.819Z,99.99
2019-03-10T04:49:59.689Z,99.99
2019-03-10T04:50:59.561Z,99.99
2019-03-10T04:51:59.425Z,99.99
2019-03-10T04:53:01.142Z,99.99
2019-03-10T04:53:59.164Z,99.99
2019-03-10T04:54:59.031Z,99.99
2019-03-10T04:55:58.901Z,99.99
2019-03-10T04:56:59.141Z,99.99
2019-03-10T04:57:58.643Z,99.99
2019-03-10T04:58:58.507Z,99.99
2019-03-10T04:59:58.378Z,97.59
2019-03-10T05:00:58.252Z,99.99
2019-03-10T05:01:58.114Z,99.99
2019-03-10T05:02:57.985Z,99.99
2019-03-10T05:03:57.879Z,99.99
2019-03-10T05:04:57.721Z,99.99
2019-03-10T05:05:57.587Z,99.99
2019-03-10T05:06:57.455Z,99.99
2019-03-10T05:07:57.325Z,99.99
2019-03-10T05:08:57.194Z,99.99
2019-03-10T05:09:57.065Z,99.99
2019-03-10T05:10:56.934Z,99.99
2019-03-10T05:11:56.801Z,99.99
2019-03-10T05:12:56.675Z,99.99
2019-03-10T05:13:56.544Z,99.99
2019-03-10T05:14:56.405Z,99.99
2019-03-10T05:15:56.277Z,99.99
2019-03-10T05:16:56.200Z,99.99
2019-03-10T05:17:56.071Z,99.99
2019-03-10T05:18:55.923Z,99.99
2019-03-10T05:19:55.752Z,99.99
2019-03-10T05:20:55.618Z,99.99
2019-03-10T05:21:55.490Z,99.99
2019-03-10T05:22:57.119Z,99.99
2019-03-10T05:23:55.244Z,99.99
2019-03-10T05:24:55.096Z,99.99
2019-03-10T05:25:54.962Z,99.99
2019-03-10T05:26:54.831Z,99.99
2019-03-10T05:27:54.698Z,99.99
2019-03-10T05:28:54.569Z,99.99
2019-03-10T05:29:54.445Z,99.99
2019-03-10T05:30:54.307Z,99.99
2019-03-10T05:31:54.176Z,99.99
2019-03-10T05:32:54.042Z,99.99
2019-03-10T05:33:53.914Z,99.99
2019-03-10T05:34:53.781Z,99.99
2019-03-10T05:35:53.649Z,99.99
2019-03-10T05:36:53.529Z,99.99
2019-03-10T05:37:53.386Z,99.99
2019-03-10T05:38:53.260Z,99.99
2019-03-10T05:39:53.128Z,99.99
2019-03-10T05:40:52.995Z,99.99
2019-03-10T05:41:52.867Z,99.99
2019-03-10T05:42:52.728Z,99.99
2019-03-10T05:43:52.598Z,99.99
2019-03-10T05:44:52.471Z,99.99
2019-03-10T05:45:52.338Z,99.99
2019-03-10T05:46:52.203Z,99.99
2019-03-10T05:47:52.080Z,99.99
2019-03-10T05:48:51.943Z,99.99
2019-03-10T05:49:51.811Z,99.99
2019-03-10T05:50:51.684Z,99.99
2019-03-10T05:51:51.551Z,99.99
2019-03-10T05:52:51.420Z,99.99
2019-03-10T05:53:51.286Z,99.99
2019-03-10T05:54:51.156Z,99.99
2019-03-10T05:55:51.025Z,99.99
2019-03-10T05:56:50.902Z,99.99
2019-03-10T05:57:50.790Z,99.99
2019-03-10T05:58:50.631Z,99.99
2019-03-10T05:59:50.500Z,99.99
2019-03-10T06:00:50.369Z,99.99
2019-03-10T06:01:50.237Z,99.99
2019-03-10T06:02:51.046Z,99.99
2019-03-10T06:03:49.977Z,99.99
2019-03-10T06:04:49.847Z,99.99
2019-03-10T06:05:49.717Z,99.99
2019-03-10T06:06:49.582Z,99.99
2019-03-10T06:07:49.454Z,99.99
2019-03-10T06:08:49.323Z,99.99
2019-03-10T06:09:49.209Z,99.99
2019-03-10T06:10:49.062Z,99.99
2019-03-10T06:11:48.935Z,99.99
2019-03-10T06:12:48.806Z,99.99
2019-03-10T06:13:48.668Z,99.99
2019-03-10T06:14:48.536Z,99.99
2019-03-10T06:15:48.408Z,99.99
2019-03-10T06:16:48.276Z,99.99
2019-03-10T06:17:48.181Z,99.99
2019-03-10T06:18:48.014Z,99.99
2019-03-10T06:19:47.896Z,99.99
2019-03-10T06:20:47.753Z,99.99
2019-03-10T06:21:47.622Z,99.99
2019-03-10T06:22:47.490Z,99.99
2019-03-10T06:23:47.363Z,99.99
2019-03-10T06:24:47.233Z,99.99
2019-03-10T06:25:48.624Z,99.99
2019-03-10T06:26:46.968Z,99.99
2019-03-10T06:27:46.838Z,99.99
2019-03-10T06:28:46.707Z,99.99
2019-03-10T06:29:46.576Z,99.99
2019-03-10T06:30:46.445Z,99.99
2019-03-10T06:31:49.384Z,99.99
2019-03-10T06:32:46.184Z,99.99
2019-03-10T06:33:46.054Z,99.99
2019-03-10T06:34:45.922Z,99.99
2019-03-10T06:35:45.791Z,99.99
2019-03-10T06:36:45.664Z,99.99
2019-03-10T06:37:45.530Z,99.99
2019-03-10T06:38:45.401Z,99.99
2019-03-10T06:39:45.270Z,99.99
2019-03-10T06:40:45.141Z,99.99
2019-03-10T06:41:45.011Z,99.99
2019-03-10T06:42:44.883Z,99.99
2019-03-10T06:43:44.750Z,99.99
2019-03-10T06:44:44.616Z,99.99
2019-03-10T06:45:44.486Z,99.99
2019-03-10T06:46:44.357Z,99.99
2019-03-10T06:47:44.227Z,99.99
2019-03-10T06:48:44.094Z,99.99
2019-03-10T06:49:43.963Z,99.99
2019-03-10T06:50:43.837Z,99.99
2019-03-10T06:51:43.708Z,99.99
2019-03-10T06:52:43.576Z,99.99
2019-03-10T06:53:43.558Z,99.99
2019-03-10T06:54:43.314Z,99.99
2019-03-10T06:55:43.185Z,99.99
2019-03-10T06:56:43.056Z,99.99
2019-03-10T06:57:42.940Z,99.99
2019-03-10T06:58:42.794Z,99.99
2019-03-10T06:59:42.661Z,99.99
2019-03-10T07:00:43.201Z,99.99
2019-03-10T07:01:42.403Z,99.99
2019-03-10T07:02:42.277Z,98.44
2019-03-10T07:03:42.144Z,96.08
2019-03-10T07:04:42.014Z,97.69
2019-03-10T07:05:41.885Z,99.30
2019-03-10T07:06:41.793Z,99.99
2019-03-10T07:07:41.623Z,99.99
2019-03-10T07:08:41.495Z,99.99
2019-03-10T07:09:41.367Z,99.99
2019-03-10T07:10:41.235Z,99.87
2019-03-10T07:11:41.106Z,95.79
2019-03-10T07:12:40.979Z,91.99
2019-03-10T07:13:40.852Z,89.25
2019-03-10T07:14:40.717Z,90.10
2019-03-10T07:15:40.614Z,90.00
2019-03-10T07:16:40.461Z,86.21
2019-03-10T07:17:40.330Z,87.82
2019-03-10T07:18:40.199Z,87.92
2019-03-10T07:19:40.073Z,87.06
2019-03-10T07:20:39.938Z,85.83
2019-03-10T07:21:39.813Z,82.98
2019-03-10T07:22:39.681Z,82.70
2019-03-10T07:23:39.549Z,81.98
2019-03-10T07:24:39.424Z,78.47
2019-03-10T07:25:39.305Z,77.62
2019-03-10T07:26:39.163Z,76.57
2019-03-10T07:27:39.039Z,76.10
2019-03-10T07:28:38.908Z,74.87
2019-03-10T07:29:40.625Z,72.02
2019-03-10T07:30:38.715Z,70.03
2019-03-10T07:31:38.517Z,68.79
2019-03-10T07:32:38.392Z,67.18
2019-03-10T07:33:38.261Z,68.54
2019-03-10T07:34:38.130Z,69.87
2019-03-10T07:35:38.018Z,70.15
2019-03-10T07:36:37.875Z,68.73
2019-03-10T07:37:37.749Z,73.96
2019-03-10T07:38:39.126Z,80.69
2019-03-10T07:39:37.528Z,86.20
2019-03-10T07:40:37.361Z,89.05
2019-03-10T07:41:37.232Z,89.05
2019-03-10T07:42:37.103Z,90.00
2019-03-10T07:43:36.973Z,89.62
2019-03-10T07:44:36.847Z,88.67
2019-03-10T07:45:36.718Z,87.72
2019-03-10T07:46:36.585Z,84.49
2019-03-10T07:47:36.458Z,79.17
2019-03-10T07:48:36.336Z,77.18
2019-03-10T07:49:36.204Z,80.03
2019-03-10T07:50:36.077Z,83.83
2019-03-10T07:51:35.947Z,85.25
2019-03-10T07:52:37.629Z,84.59
2019-03-10T07:53:35.689Z,83.83
2019-03-10T07:54:35.564Z,79.46
2019-03-10T07:55:35.435Z,79.17
2019-03-10T07:56:35.307Z,79.65
2019-03-10T07:57:35.177Z,81.45
2019-03-10T07:58:35.337Z,83.73
2019-03-10T07:59:34.923Z,85.16
2019-03-10T08:00:34.795Z,87.15
2019-03-10T08:01:34.671Z,87.15
2019-03-10T08:02:34.534Z,84.49
2019-03-10T08:03:34.431Z,83.07
2019-03-10T08:04:34.283Z,79.12
2019-03-10T08:05:34.150Z,78.36
2019-03-10T08:06:34.056Z,78.17
2019-03-10T08:07:33.899Z,79.60
2019-03-10T08:08:33.771Z,81.40
2019-03-10T08:09:33.644Z,80.55
2019-03-10T08:10:33.512Z,81.02
2019-03-10T08:11:33.385Z,82.07
2019-03-10T08:12:33.258Z,82.92
2019-03-10T08:13:33.140Z,82.50
2019-03-10T08:14:33.000Z,80.98
2019-03-10T08:15:32.875Z,80.64
2019-03-10T08:16:32.743Z,79.65
2019-03-10T08:17:32.617Z,79.27
2019-03-10T08:18:32.495Z,79.03
2019-03-10T08:19:32.359Z,79.69
2019-03-10T08:20:32.232Z,84.16
2019-03-10T08:21:32.106Z,85.91
2019-03-10T08:22:31.977Z,88.10
2019-03-10T08:23:33.639Z,88.57
2019-03-10T08:24:31.720Z,89.72
2019-03-10T08:25:31.592Z,90.09
2019-03-10T08:26:31.464Z,91.52
2019-03-10T08:27:31.505Z,89.95
2019-03-10T08:28:31.219Z,90.24
2019-03-10T08:29:31.082Z,91.00
2019-03-10T08:30:30.954Z,91.24
2019-03-10T08:31:30.826Z,93.99
2019-03-10T08:32:30.695Z,93.60
2019-03-10T08:33:30.569Z,94.37
2019-03-10T08:34:30.441Z,96.64
2019-03-10T08:35:30.315Z,97.88
2019-03-10T08:36:30.187Z,97.50
2019-03-10T08:37:30.070Z,98.83
2019-03-10T08:38:29.925Z,99.99
2019-03-10T08:39:29.814Z,99.99
2019-03-10T08:40:29.684Z,99.99
2019-03-10T08:41:29.545Z,99.99
2019-03-10T08:42:29.415Z,99.99
2019-03-10T08:43:29.311Z,99.99
2019-03-10T08:44:29.160Z,99.99
2019-03-10T08:45:29.032Z,99.99
2019-03-10T08:46:28.906Z,99.99
2019-03-10T08:47:28.777Z,99.99
2019-03-10T08:48:28.651Z,99.99
2019-03-10T08:49:28.535Z,96.79
2019-03-10T08:50:28.392Z,93.18
2019-03-10T08:51:28.269Z,91.09
2019-03-10T08:52:28.135Z,87.48
2019-03-10T08:53:28.007Z,87.10
2019-03-10T08:54:27.879Z,93.18
2019-03-10T08:55:27.766Z,95.75
2019-03-10T08:56:27.625Z,98.92
2019-03-10T08:57:27.509Z,99.99
2019-03-10T08:58:27.368Z,99.99
2019-03-10T08:59:27.242Z,99.99
2019-03-10T09:00:27.115Z,99.99
2019-03-10T09:01:26.988Z,99.99
2019-03-10T09:02:26.862Z,99.99
2019-03-10T09:03:26.729Z,99.99
2019-03-10T09:04:26.629Z,99.99
2019-03-10T09:05:26.477Z,99.99
2019-03-10T09:06:26.350Z,99.99
2019-03-10T09:07:26.225Z,99.99
2019-03-10T09:08:26.098Z,99.99
2019-03-10T09:09:25.963Z,99.99
2019-03-10T09:10:25.835Z,99.99
2019-03-10T09:11:25.708Z,99.99
2019-03-10T09:12:25.581Z,99.99
2019-03-10T09:13:25.456Z,99.99
2019-03-10T09:14:25.326Z,99.99
2019-03-10T09:15:25.195Z,99.99
2019-03-10T09:16:25.068Z,99.99
2019-03-10T09:17:26.653Z,99.99
2019-03-10T09:18:24.815Z,99.99
2019-03-10T09:19:24.686Z,99.99
2019-03-10T09:20:24.558Z,99.99
2019-03-10T09:21:24.432Z,99.99
2019-03-10T09:22:24.303Z,99.99
2019-03-10T09:23:24.188Z,99.99
2019-03-10T09:24:24.055Z,92.75
2019-03-10T09:25:23.925Z,91.33
2019-03-10T09:26:23.797Z,90.37
2019-03-10T09:27:23.678Z,90.94
2019-03-10T09:28:23.543Z,87.62
2019-03-10T09:29:23.414Z,86.43
2019-03-10T09:30:23.287Z,84.81
2019-03-10T09:31:23.161Z,83.39
2019-03-10T09:32:23.034Z,83.48
2019-03-10T09:33:22.909Z,85.38
2019-03-10T09:34:22.777Z,88.33
2019-03-10T09:35:22.653Z,87.04
2019-03-10T09:36:22.527Z,84.72
2019-03-10T09:37:22.402Z,85.47
2019-03-10T09:38:24.152Z,87.90
2019-03-10T09:39:22.155Z,89.23
2019-03-10T09:40:22.020Z,89.89
2019-03-10T09:41:21.904Z,87.42
2019-03-10T09:42:21.770Z,86.85
2019-03-10T09:43:21.639Z,87.61
2019-03-10T09:44:21.513Z,87.13
2019-03-10T09:45:21.393Z,85.14
2019-03-10T09:46:21.278Z,84.81
2019-03-10T09:47:21.134Z,86.43
2019-03-10T09:48:21.007Z,87.95
2019-03-10T09:49:20.885Z,88.23
2019-03-10T09:50:22.654Z,88.61
2019-03-10T09:51:20.631Z,89.56
2019-03-10T09:52:20.503Z,88.80
2019-03-10T09:53:20.377Z,87.57
2019-03-10T09:54:20.298Z,85.66
2019-03-10T09:55:20.125Z,84.62
2019-03-10T09:56:21.656Z,83.95
2019-03-10T09:57:19.871Z,82.43
2019-03-10T09:58:19.740Z,83.58
2019-03-10T09:59:19.615Z,85.47
2019-03-10T10:00:19.491Z,87.28
2019-03-10T10:01:19.363Z,88.23
2019-03-10T10:02:19.235Z,90.33
2019-03-10T10:03:19.111Z,94.42
2019-03-10T10:04:18.983Z,93.79
2019-03-10T10:05:18.859Z,94.27
2019-03-10T10:06:18.733Z,94.37
2019-03-10T10:07:18.602Z,96.08
2019-03-10T10:08:18.481Z,92.27
2019-03-10T10:09:18.361Z,87.56
2019-03-10T10:10:18.229Z,80.61
2019-03-10T10:11:18.099Z,78.42
2019-03-10T10:12:17.974Z,79.32
2019-03-10T10:13:17.847Z,78.17
2019-03-10T10:14:17.722Z,74.18
2019-03-10T10:15:17.594Z,75.13
2019-03-10T10:16:17.473Z,73.93
2019-03-10T10:17:17.345Z,72.69
2019-03-10T10:18:17.221Z,70.88
2019-03-10T10:19:17.096Z,70.88
2019-03-10T10:20:16.970Z,71.64
2019-03-10T10:21:16.846Z,70.59
2019-03-10T10:22:16.718Z,71.39
2019-03-10T10:23:16.591Z,70.63
2019-03-10T10:24:16.470Z,70.44
2019-03-10T10:25:16.346Z,71.48
2019-03-10T10:26:16.216Z,72.63
2019-03-10T10:27:16.093Z,70.15
2019-03-10T10:28:15.973Z,69.01
2019-03-10T10:29:15.844Z,69.20
2019-03-10T10:30:15.799Z,70.82
2019-03-10T10:31:15.594Z,72.92
2019-03-10T10:32:15.471Z,71.11
2019-03-10T10:33:15.345Z,69.58
2019-03-10T10:34:15.222Z,68.63
2019-03-10T10:35:15.097Z,67.86
2019-03-10T10:36:14.971Z,68.05
2019-03-10T10:37:14.861Z,68.63
2019-03-10T10:38:18.556Z,70.63
2019-03-10T10:39:14.597Z,70.34
2019-03-10T10:40:14.473Z,70.95
2019-03-10T10:41:14.357Z,70.76
2019-03-10T10:42:14.220Z,70.47
2019-03-10T10:43:14.097Z,70.86
2019-03-10T10:44:13.982Z,72.38
2019-03-10T10:45:13.849Z,72.09
2019-03-10T10:46:13.723Z,72.76
2019-03-10T10:47:13.614Z,72.53
2019-03-10T10:48:13.476Z,71.96
2019-03-10T10:49:13.353Z,71.48
2019-03-10T10:50:13.977Z,71.58
2019-03-10T10:51:13.103Z,71.20
2019-03-10T10:52:12.991Z,72.16
2019-03-10T10:53:13.689Z,72.25
2019-03-10T10:54:12.736Z,72.09
2019-03-10T10:55:12.607Z,72.38
2019-03-10T10:56:12.480Z,72.28
2019-03-10T10:57:12.359Z,74.01
2019-03-10T10:58:12.233Z,74.96
2019-03-10T10:59:12.106Z,74.86
2019-03-10T11:00:12.005Z,76.77
2019-03-10T11:01:11.864Z,75.59
2019-03-10T11:02:11.736Z,73.49
2019-03-10T11:03:12.400Z,74.16
2019-03-10T11:04:11.503Z,74.44
2019-03-10T11:05:11.362Z,74.54
2019-03-10T11:06:11.237Z,74.25
2019-03-10T11:07:11.110Z,73.68
2019-03-10T11:08:10.989Z,74.25
2019-03-10T11:09:10.867Z,72.57
2019-03-10T11:10:10.739Z,71.14
2019-03-10T11:11:10.613Z,70.57
2019-03-10T11:12:10.491Z,71.14
2019-03-10T11:13:12.174Z,70.47
2019-03-10T11:14:10.242Z,70.86
2019-03-10T11:15:10.121Z,71.52
2019-03-10T11:16:09.997Z,70.47
2019-03-10T11:17:09.869Z,70.57
2019-03-10T11:18:09.994Z,70.70
2019-03-10T11:19:09.622Z,70.61
2019-03-10T11:20:09.519Z,70.89
2019-03-10T11:21:09.372Z,70.61
2019-03-10T11:22:09.699Z,70.03
2019-03-10T11:23:09.126Z,69.93
2019-03-10T11:24:09.004Z,68.12
2019-03-10T11:25:08.876Z,67.36
2019-03-10T11:26:08.752Z,68.41
2019-03-10T11:27:08.628Z,67.93
2019-03-10T11:28:08.509Z,69.27
2019-03-10T11:29:08.383Z,69.46
2019-03-10T11:30:08.256Z,69.65
2019-03-10T11:31:08.135Z,69.56
2019-03-10T11:32:08.010Z,69.08
2019-03-10T11:33:07.887Z,69.37
2019-03-10T11:34:07.773Z,68.73
2019-03-10T11:35:07.641Z,67.49
2019-03-10T11:36:07.522Z,66.28
2019-03-10T11:37:07.403Z,66.47
2019-03-10T11:38:07.270Z,67.62
2019-03-10T11:39:07.147Z,65.61
2019-03-10T11:40:07.027Z,64.78
2019-03-10T11:41:06.900Z,66.00
2019-03-10T11:42:06.804Z,66.28
2019-03-10T11:43:06.658Z,68.00
2019-03-10T11:44:06.531Z,68.29
2019-03-10T11:45:06.415Z,66.60
2019-03-10T11:46:06.284Z,66.22
2019-03-10T11:47:06.166Z,66.03
2019-03-10T11:48:06.043Z,63.26
2019-03-10T11:49:05.922Z,62.04
2019-03-10T11:50:05.804Z,60.99
2019-03-10T11:51:05.702Z,60.83
2019-03-10T11:52:05.552Z,60.13
2019-03-10T11:53:05.430Z,59.30
2019-03-10T11:54:05.303Z,60.35
2019-03-10T11:55:05.219Z,60.26
2019-03-10T11:56:05.090Z,61.41
2019-03-10T11:57:04.939Z,61.98
2019-03-10T11:58:04.814Z,61.98
2019-03-10T11:59:04.708Z,62.17
2019-03-10T12:00:04.573Z,61.41
2019-03-10T12:01:04.450Z,60.80
2019-03-10T12:02:15.143Z,59.66
2019-03-10T12:03:04.206Z,60.13
2019-03-10T12:04:04.083Z,61.41
2019-03-10T12:05:03.964Z,60.45
2019-03-10T12:06:03.865Z,58.83
2019-03-10T12:07:03.724Z,59.11
2019-03-10T12:08:03.595Z,57.01
2019-03-10T12:09:03.480Z,56.72
2019-03-10T12:10:03.361Z,57.70
2019-03-10T12:11:03.232Z,59.75
2019-03-10T12:12:03.109Z,56.37
2019-03-10T12:13:02.991Z,56.46
2019-03-10T12:14:02.877Z,58.63
2019-03-10T12:15:02.745Z,60.93
2019-03-10T12:16:02.623Z,60.55
2019-03-10T12:17:02.510Z,59.84
2019-03-10T12:18:02.377Z,58.61
2019-03-10T12:19:02.258Z,58.70
2019-03-10T12:20:02.135Z,59.15
2019-03-10T12:21:02.019Z,59.91
2019-03-10T12:22:01.893Z,59.15
2019-03-10T12:23:01.771Z,57.43
2019-03-10T12:24:01.649Z,58.67
2019-03-10T12:25:01.532Z,59.05
2019-03-10T12:26:01.406Z,58.48
2019-03-10T12:27:01.282Z,58.76
2019-03-10T12:28:01.188Z,58.67
2019-03-10T12:29:01.039Z,58.67
2019-03-10T12:30:00.917Z,57.04
2019-03-10T12:31:00.794Z,58.48
2019-03-10T12:32:00.675Z,60.55
2019-03-10T12:33:00.551Z,60.93
2019-03-10T12:34:00.429Z,61.89
2019-03-10T12:35:00.421Z,62.75
2019-03-10T12:36:00.185Z,63.13
2019-03-10T12:37:00.062Z,60.93
2019-03-10T12:37:59.940Z,60.64
2019-03-10T12:38:59.815Z,61.82
2019-03-10T12:39:59.697Z,63.26
2019-03-10T12:40:59.571Z,62.97
2019-03-10T12:41:59.449Z,62.40
2019-03-10T12:42:59.330Z,62.78
2019-03-10T12:43:59.204Z,60.77
2019-03-10T12:44:59.086Z,59.37
2019-03-10T12:45:58.959Z,57.39
2019-03-10T12:46:58.838Z,54.74
2019-03-10T12:47:58.714Z,53.97
2019-03-10T12:48:58.594Z,54.45
2019-03-10T12:49:58.469Z,53.40
2019-03-10T12:50:58.350Z,54.07